sensor_id;sensor_type;location;lat;lon;timestamp;P1;durP1;ratioP1;P2;durP2;ratioP2
71914;SDS011;60387;49.994;14.660;2022-10-31T00:00:59;23.48;;;10.70;;
71914;SDS011;60387;49.994;14.660;2022-10-31T00:03:33;23.27;;;10.43;;
71914;SDS011;60387;49.994;14.660;2022-10-31T00:06:07;25.07;;;10.07;;
71914;SDS011;60387;49.994;14.660;2022-10-31T00:08:40;25.45;;;10.38;;
71914;SDS011;60387;49.994;14.660;2022-10-31T00:11:13;25.83;;;11.13;;
71914;SDS011;60387;49.994;14.660;2022-10-31T00:13:50;25.33;;;11.03;;
71914;SDS011;60387;49.994;14.660;2022-10-31T00:16:24;22.93;;;10.30;;
71914;SDS011;60387;49.994;14.660;2022-10-31T00:18:59;24.50;;;10.18;;
71914;SDS011;60387;49.994;14.660;2022-10-31T00:21:34;23.90;;;10.80;;
71914;SDS011;60387;49.994;14.660;2022-10-31T00:24:08;24.77;;;9.70;;
71914;SDS011;60387;49.994;14.660;2022-10-31T00:26:41;20.47;;;9.67;;
71914;SDS011;60387;49.994;14.660;2022-10-31T00:29:15;27.80;;;10.90;;
71914;SDS011;60387;49.994;14.660;2022-10-31T00:31:48;24.53;;;10.40;;
71914;SDS011;60387;49.994;14.660;2022-10-31T00:34:21;25.70;;;10.33;;
71914;SDS011;60387;49.994;14.660;2022-10-31T00:36:54;22.57;;;9.40;;
71914;SDS011;60387;49.994;14.660;2022-10-31T00:39:27;28.07;;;9.77;;
71914;SDS011;60387;49.994;14.660;2022-10-31T00:42:01;20.47;;;9.23;;
71914;SDS011;60387;49.994;14.660;2022-10-31T00:44:34;22.27;;;8.83;;
71914;SDS011;60387;49.994;14.660;2022-10-31T00:47:07;21.37;;;9.27;;
71914;SDS011;60387;49.994;14.660;2022-10-31T00:49:40;19.17;;;8.30;;
71914;SDS011;60387;49.994;14.660;2022-10-31T00:52:14;21.90;;;9.13;;
71914;SDS011;60387;49.994;14.660;2022-10-31T00:54:47;21.07;;;8.63;;
71914;SDS011;60387;49.994;14.660;2022-10-31T00:57:20;22.13;;;9.07;;
71914;SDS011;60387;49.994;14.660;2022-10-31T00:59:54;22.23;;;8.93;;
71914;SDS011;60387;49.994;14.660;2022-10-31T01:02:27;25.07;;;9.27;;
71914;SDS011;60387;49.994;14.660;2022-10-31T01:05:00;23.90;;;9.67;;
71914;SDS011;60387;49.994;14.660;2022-10-31T01:07:37;18.80;;;9.00;;
71914;SDS011;60387;49.994;14.660;2022-10-31T01:10:11;20.05;;;8.38;;
71914;SDS011;60387;49.994;14.660;2022-10-31T01:12:46;20.42;;;9.60;;
71914;SDS011;60387;49.994;14.660;2022-10-31T01:15:21;19.00;;;8.10;;
71914;SDS011;60387;49.994;14.660;2022-10-31T01:17:55;21.27;;;8.10;;
71914;SDS011;60387;49.994;14.660;2022-10-31T01:20:29;18.90;;;8.90;;
71914;SDS011;60387;49.994;14.660;2022-10-31T01:23:02;18.33;;;8.23;;
71914;SDS011;60387;49.994;14.660;2022-10-31T01:25:35;19.63;;;8.83;;
71914;SDS011;60387;49.994;14.660;2022-10-31T01:28:08;20.27;;;9.40;;
71914;SDS011;60387;49.994;14.660;2022-10-31T01:30:42;22.20;;;9.97;;
71914;SDS011;60387;49.994;14.660;2022-10-31T01:33:15;25.53;;;11.07;;
71914;SDS011;60387;49.994;14.660;2022-10-31T01:35:48;27.00;;;10.47;;
71914;SDS011;60387;49.994;14.660;2022-10-31T01:38:21;25.50;;;11.43;;
71914;SDS011;60387;49.994;14.660;2022-10-31T01:40:55;33.57;;;12.80;;
71914;SDS011;60387;49.994;14.660;2022-10-31T01:46:27;34.40;;;12.63;;
71914;SDS011;60387;49.994;14.660;2022-10-31T01:49:09;72.88;;;12.57;;
71914;SDS011;60387;49.994;14.660;2022-10-31T01:51:51;43.50;;;12.50;;
71914;SDS011;60387;49.994;14.660;2022-10-31T01:54:30;30.33;;;11.30;;
71914;SDS011;60387;49.994;14.660;2022-10-31T01:57:07;31.63;;;11.57;;
71914;SDS011;60387;49.994;14.660;2022-10-31T01:59:44;51.88;;;12.80;;
71914;SDS011;60387;49.994;14.660;2022-10-31T02:02:22;48.35;;;14.23;;
71914;SDS011;60387;49.994;14.660;2022-10-31T02:04:57;37.40;;;13.23;;
71914;SDS011;60387;49.994;14.660;2022-10-31T02:07:55;33.75;;;12.13;;
71914;SDS011;60387;49.994;14.660;2022-10-31T02:10:35;29.73;;;12.13;;
71914;SDS011;60387;49.994;14.660;2022-10-31T02:13:09;32.55;;;12.10;;
71914;SDS011;60387;49.994;14.660;2022-10-31T02:15:44;35.30;;;12.45;;
71914;SDS011;60387;49.994;14.660;2022-10-31T02:18:20;32.97;;;13.00;;
71914;SDS011;60387;49.994;14.660;2022-10-31T02:20:58;30.88;;;12.25;;
71914;SDS011;60387;49.994;14.660;2022-10-31T02:23:58;30.87;;;13.03;;
71914;SDS011;60387;49.994;14.660;2022-10-31T02:47:08;24.13;;;11.40;;
71914;SDS011;60387;49.994;14.660;2022-10-31T02:52:41;24.35;;;11.40;;
71914;SDS011;60387;49.994;14.660;2022-10-31T03:00:50;23.45;;;10.70;;
71914;SDS011;60387;49.994;14.660;2022-10-31T03:06:40;23.10;;;10.73;;
71914;SDS011;60387;49.994;14.660;2022-10-31T03:18:06;19.95;;;9.57;;
71914;SDS011;60387;49.994;14.660;2022-10-31T03:20:43;23.95;;;10.40;;
71914;SDS011;60387;49.994;14.660;2022-10-31T03:23:20;27.58;;;10.43;;
71914;SDS011;60387;49.994;14.660;2022-10-31T03:25:57;27.63;;;11.13;;
71914;SDS011;60387;49.994;14.660;2022-10-31T03:28:40;24.50;;;10.73;;
71914;SDS011;60387;49.994;14.660;2022-10-31T03:31:23;26.55;;;11.25;;
71914;SDS011;60387;49.994;14.660;2022-10-31T03:34:01;23.90;;;10.07;;
71914;SDS011;60387;49.994;14.660;2022-10-31T03:36:37;23.27;;;9.95;;
71914;SDS011;60387;49.994;14.660;2022-10-31T03:39:13;24.43;;;10.33;;
71914;SDS011;60387;49.994;14.660;2022-10-31T03:41:54;22.73;;;9.43;;
71914;SDS011;60387;49.994;14.660;2022-10-31T03:44:33;24.23;;;10.43;;
71914;SDS011;60387;49.994;14.660;2022-10-31T03:47:08;23.02;;;9.80;;
71914;SDS011;60387;49.994;14.660;2022-10-31T03:49:41;21.30;;;9.77;;
71914;SDS011;60387;49.994;14.660;2022-10-31T03:58:03;22.55;;;9.82;;
71914;SDS011;60387;49.994;14.660;2022-10-31T04:00:40;21.73;;;9.47;;
71914;SDS011;60387;49.994;14.660;2022-10-31T04:03:19;22.77;;;9.02;;
71914;SDS011;60387;49.994;14.660;2022-10-31T04:05:58;24.27;;;9.20;;
71914;SDS011;60387;49.994;14.660;2022-10-31T04:08:38;22.73;;;9.90;;
71914;SDS011;60387;49.994;14.660;2022-10-31T04:11:15;22.35;;;10.32;;
71914;SDS011;60387;49.994;14.660;2022-10-31T04:13:52;22.63;;;9.33;;
71914;SDS011;60387;49.994;14.660;2022-10-31T04:16:26;24.63;;;9.75;;
71914;SDS011;60387;49.994;14.660;2022-10-31T04:19:00;21.10;;;9.95;;
71914;SDS011;60387;49.994;14.660;2022-10-31T04:21:34;24.53;;;9.97;;
71914;SDS011;60387;49.994;14.660;2022-10-31T04:24:07;21.97;;;9.17;;
71914;SDS011;60387;49.994;14.660;2022-10-31T04:26:40;19.73;;;8.60;;
71914;SDS011;60387;49.994;14.660;2022-10-31T04:29:14;21.50;;;9.27;;
71914;SDS011;60387;49.994;14.660;2022-10-31T04:31:47;22.27;;;9.10;;
71914;SDS011;60387;49.994;14.660;2022-10-31T04:34:20;20.50;;;9.57;;
71914;SDS011;60387;49.994;14.660;2022-10-31T04:36:53;22.70;;;10.03;;
71914;SDS011;60387;49.994;14.660;2022-10-31T04:39:27;25.73;;;10.90;;
71914;SDS011;60387;49.994;14.660;2022-10-31T04:42:00;26.00;;;10.80;;
71914;SDS011;60387;49.994;14.660;2022-10-31T04:44:33;47.20;;;12.23;;
71914;SDS011;60387;49.994;14.660;2022-10-31T04:47:06;39.03;;;11.50;;
71914;SDS011;60387;49.994;14.660;2022-10-31T04:49:40;48.43;;;12.47;;
71914;SDS011;60387;49.994;14.660;2022-10-31T04:52:13;31.60;;;12.30;;
71914;SDS011;60387;49.994;14.660;2022-10-31T04:54:46;38.13;;;12.73;;
71914;SDS011;60387;49.994;14.660;2022-10-31T04:57:20;31.67;;;10.87;;
71914;SDS011;60387;49.994;14.660;2022-10-31T04:59:53;28.27;;;11.73;;
71914;SDS011;60387;49.994;14.660;2022-10-31T05:02:26;33.20;;;11.30;;
71914;SDS011;60387;49.994;14.660;2022-10-31T05:04:59;30.83;;;12.00;;
71914;SDS011;60387;49.994;14.660;2022-10-31T05:07:33;29.87;;;12.10;;
71914;SDS011;60387;49.994;14.660;2022-10-31T05:10:06;31.63;;;11.47;;
71914;SDS011;60387;49.994;14.660;2022-10-31T05:12:46;28.57;;;11.83;;
71914;SDS011;60387;49.994;14.660;2022-10-31T05:15:30;32.85;;;9.98;;
71914;SDS011;60387;49.994;14.660;2022-10-31T05:18:03;27.85;;;12.15;;
71914;SDS011;60387;49.994;14.660;2022-10-31T05:20:37;34.03;;;11.20;;
71914;SDS011;60387;49.994;14.660;2022-10-31T05:23:10;29.17;;;11.83;;
71914;SDS011;60387;49.994;14.660;2022-10-31T05:25:43;80.57;;;12.17;;
71914;SDS011;60387;49.994;14.660;2022-10-31T05:28:17;24.00;;;10.67;;
71914;SDS011;60387;49.994;14.660;2022-10-31T05:30:50;22.90;;;10.77;;
71914;SDS011;60387;49.994;14.660;2022-10-31T05:33:23;22.50;;;11.10;;
71914;SDS011;60387;49.994;14.660;2022-10-31T05:35:56;22.67;;;11.00;;
71914;SDS011;60387;49.994;14.660;2022-10-31T05:38:30;24.30;;;10.83;;
71914;SDS011;60387;49.994;14.660;2022-10-31T05:41:03;23.83;;;11.13;;
71914;SDS011;60387;49.994;14.660;2022-10-31T05:43:36;28.03;;;12.10;;
71914;SDS011;60387;49.994;14.660;2022-10-31T05:46:09;22.55;;;10.55;;
71914;SDS011;60387;49.994;14.660;2022-10-31T05:48:43;27.02;;;11.77;;
71914;SDS011;60387;49.994;14.660;2022-10-31T05:51:16;25.27;;;11.63;;
71914;SDS011;60387;49.994;14.660;2022-10-31T05:53:49;23.30;;;10.67;;
71914;SDS011;60387;49.994;14.660;2022-10-31T05:56:22;23.33;;;11.03;;
71914;SDS011;60387;49.994;14.660;2022-10-31T05:58:56;24.37;;;11.33;;
71914;SDS011;60387;49.994;14.660;2022-10-31T06:01:29;29.83;;;11.87;;
71914;SDS011;60387;49.994;14.660;2022-10-31T06:04:02;26.03;;;11.00;;
71914;SDS011;60387;49.994;14.660;2022-10-31T06:06:36;29.30;;;11.50;;
71914;SDS011;60387;49.994;14.660;2022-10-31T06:09:09;25.60;;;11.57;;
71914;SDS011;60387;49.994;14.660;2022-10-31T06:11:42;29.70;;;11.63;;
71914;SDS011;60387;49.994;14.660;2022-10-31T06:14:15;29.43;;;12.03;;
71914;SDS011;60387;49.994;14.660;2022-10-31T06:16:49;28.17;;;12.10;;
71914;SDS011;60387;49.994;14.660;2022-10-31T06:19:22;28.10;;;12.63;;
71914;SDS011;60387;49.994;14.660;2022-10-31T06:21:55;29.50;;;11.90;;
71914;SDS011;60387;49.994;14.660;2022-10-31T06:24:28;29.90;;;11.73;;
71914;SDS011;60387;49.994;14.660;2022-10-31T06:27:02;30.93;;;12.17;;
71914;SDS011;60387;49.994;14.660;2022-10-31T06:29:35;33.03;;;12.37;;
71914;SDS011;60387;49.994;14.660;2022-10-31T06:32:09;27.43;;;12.37;;
71914;SDS011;60387;49.994;14.660;2022-10-31T06:34:43;28.55;;;13.05;;
71914;SDS011;60387;49.994;14.660;2022-10-31T06:37:17;32.43;;;13.83;;
71914;SDS011;60387;49.994;14.660;2022-10-31T06:39:50;31.67;;;12.17;;
71914;SDS011;60387;49.994;14.660;2022-10-31T06:42:23;28.15;;;11.95;;
71914;SDS011;60387;49.994;14.660;2022-10-31T06:44:56;28.73;;;12.93;;
71914;SDS011;60387;49.994;14.660;2022-10-31T06:47:30;34.08;;;13.65;;
71914;SDS011;60387;49.994;14.660;2022-10-31T06:50:03;34.08;;;14.15;;
71914;SDS011;60387;49.994;14.660;2022-10-31T06:52:37;28.20;;;11.25;;
71914;SDS011;60387;49.994;14.660;2022-10-31T06:55:10;30.20;;;11.80;;
71914;SDS011;60387;49.994;14.660;2022-10-31T06:57:48;29.23;;;11.57;;
71914;SDS011;60387;49.994;14.660;2022-10-31T07:00:23;26.70;;;11.10;;
71914;SDS011;60387;49.994;14.660;2022-10-31T07:02:57;22.63;;;10.23;;
71914;SDS011;60387;49.994;14.660;2022-10-31T07:05:33;22.00;;;9.88;;
71914;SDS011;60387;49.994;14.660;2022-10-31T07:08:07;24.97;;;10.93;;
71914;SDS011;60387;49.994;14.660;2022-10-31T07:10:42;25.05;;;10.40;;
71914;SDS011;60387;49.994;14.660;2022-10-31T07:13:16;24.35;;;10.68;;
71914;SDS011;60387;49.994;14.660;2022-10-31T07:15:49;21.73;;;9.93;;
71914;SDS011;60387;49.994;14.660;2022-10-31T07:18:22;22.73;;;9.63;;
71914;SDS011;60387;49.994;14.660;2022-10-31T07:20:56;20.30;;;9.70;;
71914;SDS011;60387;49.994;14.660;2022-10-31T07:23:29;25.70;;;11.17;;
71914;SDS011;60387;49.994;14.660;2022-10-31T07:26:02;25.83;;;10.10;;
71914;SDS011;60387;49.994;14.660;2022-10-31T07:28:35;20.37;;;10.80;;
71914;SDS011;60387;49.994;14.660;2022-10-31T07:31:09;19.87;;;10.43;;
71914;SDS011;60387;49.994;14.660;2022-10-31T07:33:42;23.30;;;10.80;;
71914;SDS011;60387;49.994;14.660;2022-10-31T07:36:15;21.47;;;9.97;;
71914;SDS011;60387;49.994;14.660;2022-10-31T07:38:49;18.00;;;9.10;;
71914;SDS011;60387;49.994;14.660;2022-10-31T07:41:22;20.38;;;10.13;;
71914;SDS011;60387;49.994;14.660;2022-10-31T07:43:55;19.77;;;10.40;;
71914;SDS011;60387;49.994;14.660;2022-10-31T07:46:29;17.17;;;9.37;;
71914;SDS011;60387;49.994;14.660;2022-10-31T07:49:02;19.67;;;8.90;;
71914;SDS011;60387;49.994;14.660;2022-10-31T07:51:35;20.33;;;9.50;;
71914;SDS011;60387;49.994;14.660;2022-10-31T07:54:08;19.63;;;8.80;;
71914;SDS011;60387;49.994;14.660;2022-10-31T07:56:42;19.73;;;10.03;;
71914;SDS011;60387;49.994;14.660;2022-10-31T07:59:15;24.50;;;10.83;;
71914;SDS011;60387;49.994;14.660;2022-10-31T08:01:48;22.37;;;10.33;;
71914;SDS011;60387;49.994;14.660;2022-10-31T08:04:21;17.20;;;9.67;;
71914;SDS011;60387;49.994;14.660;2022-10-31T08:06:54;17.77;;;10.13;;
71914;SDS011;60387;49.994;14.660;2022-10-31T08:09:28;17.97;;;8.73;;
71914;SDS011;60387;49.994;14.660;2022-10-31T08:12:01;16.13;;;8.30;;
71914;SDS011;60387;49.994;14.660;2022-10-31T08:14:34;15.97;;;7.93;;
71914;SDS011;60387;49.994;14.660;2022-10-31T08:17:08;16.53;;;7.67;;
71914;SDS011;60387;49.994;14.660;2022-10-31T08:19:41;15.40;;;8.13;;
71914;SDS011;60387;49.994;14.660;2022-10-31T08:22:14;15.73;;;8.33;;
71914;SDS011;60387;49.994;14.660;2022-10-31T08:24:47;16.30;;;8.67;;
71914;SDS011;60387;49.994;14.660;2022-10-31T08:27:21;15.20;;;7.43;;
71914;SDS011;60387;49.994;14.660;2022-10-31T08:29:54;16.47;;;8.00;;
71914;SDS011;60387;49.994;14.660;2022-10-31T08:32:27;14.90;;;8.03;;
71914;SDS011;60387;49.994;14.660;2022-10-31T08:35:00;13.17;;;7.47;;
71914;SDS011;60387;49.994;14.660;2022-10-31T08:37:33;17.90;;;7.80;;
71914;SDS011;60387;49.994;14.660;2022-10-31T08:40:07;14.53;;;8.10;;
71914;SDS011;60387;49.994;14.660;2022-10-31T08:42:40;23.17;;;8.63;;
71914;SDS011;60387;49.994;14.660;2022-10-31T08:45:14;14.33;;;8.60;;
71914;SDS011;60387;49.994;14.660;2022-10-31T08:47:47;16.27;;;8.87;;
71914;SDS011;60387;49.994;14.660;2022-10-31T08:50:20;14.10;;;8.83;;
71914;SDS011;60387;49.994;14.660;2022-10-31T08:52:58;15.57;;;9.57;;
71914;SDS011;60387;49.994;14.660;2022-10-31T08:55:33;20.30;;;10.65;;
71914;SDS011;60387;49.994;14.660;2022-10-31T08:58:11;16.77;;;9.98;;
71914;SDS011;60387;49.994;14.660;2022-10-31T09:00:51;22.17;;;10.10;;
71914;SDS011;60387;49.994;14.660;2022-10-31T09:03:28;16.80;;;9.18;;
71914;SDS011;60387;49.994;14.660;2022-10-31T09:06:03;15.23;;;8.68;;
71914;SDS011;60387;49.994;14.660;2022-10-31T09:08:36;15.80;;;8.63;;
71914;SDS011;60387;49.994;14.660;2022-10-31T09:11:10;15.33;;;8.77;;
71914;SDS011;60387;49.994;14.660;2022-10-31T09:13:43;11.97;;;8.07;;
71914;SDS011;60387;49.994;14.660;2022-10-31T09:16:16;12.17;;;8.03;;
71914;SDS011;60387;49.994;14.660;2022-10-31T09:18:49;12.77;;;7.53;;
71914;SDS011;60387;49.994;14.660;2022-10-31T09:21:22;13.73;;;8.43;;
71914;SDS011;60387;49.994;14.660;2022-10-31T09:23:56;16.10;;;8.50;;
71914;SDS011;60387;49.994;14.660;2022-10-31T09:26:29;14.03;;;8.97;;
71914;SDS011;60387;49.994;14.660;2022-10-31T09:29:02;13.83;;;8.53;;
71914;SDS011;60387;49.994;14.660;2022-10-31T09:31:36;17.57;;;9.53;;
71914;SDS011;60387;49.994;14.660;2022-10-31T09:34:09;19.87;;;11.40;;
71914;SDS011;60387;49.994;14.660;2022-10-31T09:36:42;19.67;;;11.47;;
71914;SDS011;60387;49.994;14.660;2022-10-31T09:39:15;15.90;;;9.93;;
71914;SDS011;60387;49.994;14.660;2022-10-31T09:47:28;20.85;;;9.15;;
71914;SDS011;60387;49.994;14.660;2022-10-31T09:50:18;14.47;;;8.40;;
71914;SDS011;60387;49.994;14.660;2022-10-31T09:53:02;14.90;;;8.25;;
71914;SDS011;60387;49.994;14.660;2022-10-31T09:55:44;14.18;;;8.30;;
71914;SDS011;60387;49.994;14.660;2022-10-31T09:58:25;13.60;;;8.13;;
71914;SDS011;60387;49.994;14.660;2022-10-31T10:01:02;15.30;;;8.48;;
71914;SDS011;60387;49.994;14.660;2022-10-31T10:03:41;13.73;;;8.27;;
71914;SDS011;60387;49.994;14.660;2022-10-31T10:06:27;14.55;;;9.27;;
71914;SDS011;60387;49.994;14.660;2022-10-31T10:09:09;15.27;;;9.48;;
71914;SDS011;60387;49.994;14.660;2022-10-31T10:11:55;17.48;;;10.05;;
71914;SDS011;60387;49.994;14.660;2022-10-31T10:14:41;17.50;;;9.02;;
71914;SDS011;60387;49.994;14.660;2022-10-31T10:20:44;15.95;;;9.52;;
71914;SDS011;60387;49.994;14.660;2022-10-31T10:26:45;16.67;;;9.60;;
71914;SDS011;60387;49.994;14.660;2022-10-31T10:29:40;15.15;;;9.50;;
71914;SDS011;60387;49.994;14.660;2022-10-31T10:32:29;15.50;;;8.77;;
71914;SDS011;60387;49.994;14.660;2022-10-31T10:38:14;15.38;;;8.70;;
71914;SDS011;60387;49.994;14.660;2022-10-31T10:40:52;17.38;;;8.70;;
71914;SDS011;60387;49.994;14.660;2022-10-31T10:43:28;14.48;;;8.65;;
71914;SDS011;60387;49.994;14.660;2022-10-31T11:00:17;15.35;;;9.43;;
71914;SDS011;60387;49.994;14.660;2022-10-31T11:02:53;18.90;;;9.00;;
71914;SDS011;60387;49.994;14.660;2022-10-31T11:05:44;14.80;;;9.00;;
71914;SDS011;60387;49.994;14.660;2022-10-31T11:08:34;18.00;;;8.50;;
71914;SDS011;60387;49.994;14.660;2022-10-31T11:13:48;15.10;;;8.50;;
71914;SDS011;60387;49.994;14.660;2022-10-31T11:21:45;19.15;;;9.65;;
71914;SDS011;60387;49.994;14.660;2022-10-31T11:24:21;18.05;;;9.32;;
71914;SDS011;60387;49.994;14.660;2022-10-31T11:30:03;15.88;;;8.40;;
71914;SDS011;60387;49.994;14.660;2022-10-31T11:32:39;17.30;;;8.80;;
71914;SDS011;60387;49.994;14.660;2022-10-31T11:35:20;15.77;;;7.65;;
71914;SDS011;60387;49.994;14.660;2022-10-31T11:37:56;14.57;;;7.90;;
71914;SDS011;60387;49.994;14.660;2022-10-31T11:40:32;18.10;;;8.63;;
71914;SDS011;60387;49.994;14.660;2022-10-31T11:43:12;18.33;;;8.67;;
71914;SDS011;60387;49.994;14.660;2022-10-31T11:45:49;17.17;;;9.30;;
71914;SDS011;60387;49.994;14.660;2022-10-31T11:48:23;15.27;;;8.98;;
71914;SDS011;60387;49.994;14.660;2022-10-31T11:50:57;17.52;;;8.90;;
71914;SDS011;60387;49.994;14.660;2022-10-31T11:53:32;16.50;;;9.03;;
71914;SDS011;60387;49.994;14.660;2022-10-31T11:56:13;15.30;;;8.65;;
71914;SDS011;60387;49.994;14.660;2022-10-31T11:58:57;15.50;;;8.13;;
71914;SDS011;60387;49.994;14.660;2022-10-31T12:01:34;16.40;;;8.47;;
71914;SDS011;60387;49.994;14.660;2022-10-31T12:04:08;16.03;;;8.20;;
71914;SDS011;60387;49.994;14.660;2022-10-31T12:06:43;15.95;;;7.90;;
71914;SDS011;60387;49.994;14.660;2022-10-31T12:09:25;18.38;;;7.95;;
71914;SDS011;60387;49.994;14.660;2022-10-31T12:20:40;18.85;;;9.32;;
71914;SDS011;60387;49.994;14.660;2022-10-31T12:23:28;18.98;;;10.20;;
71914;SDS011;60387;49.994;14.660;2022-10-31T12:26:17;17.23;;;8.35;;
71914;SDS011;60387;49.994;14.660;2022-10-31T12:32:04;17.13;;;8.33;;
71914;SDS011;60387;49.994;14.660;2022-10-31T12:40:29;15.85;;;8.60;;
71914;SDS011;60387;49.994;14.660;2022-10-31T12:43:12;15.75;;;8.63;;
71914;SDS011;60387;49.994;14.660;2022-10-31T12:46:13;16.80;;;8.20;;
71914;SDS011;60387;49.994;14.660;2022-10-31T12:49:10;19.02;;;8.73;;
71914;SDS011;60387;49.994;14.660;2022-10-31T12:51:58;17.88;;;9.20;;
71914;SDS011;60387;49.994;14.660;2022-10-31T12:55:20;17.58;;;8.77;;
71914;SDS011;60387;49.994;14.660;2022-10-31T12:57:44;18.98;;;8.63;;
71914;SDS011;60387;49.994;14.660;2022-10-31T13:00:20;17.67;;;8.87;;
71914;SDS011;60387;49.994;14.660;2022-10-31T13:05:52;16.47;;;8.73;;
71914;SDS011;60387;49.994;14.660;2022-10-31T13:08:40;17.40;;;8.45;;
71914;SDS011;60387;49.994;14.660;2022-10-31T13:11:20;16.40;;;9.13;;
71914;SDS011;60387;49.994;14.660;2022-10-31T13:14:00;16.95;;;8.48;;
71914;SDS011;60387;49.994;14.660;2022-10-31T13:16:39;18.63;;;8.35;;
71914;SDS011;60387;49.994;14.660;2022-10-31T13:24:52;18.67;;;9.27;;
71914;SDS011;60387;49.994;14.660;2022-10-31T13:30:20;19.70;;;10.15;;
71914;SDS011;60387;49.994;14.660;2022-10-31T13:35:41;20.83;;;10.18;;
71914;SDS011;60387;49.994;14.660;2022-10-31T13:46:59;22.47;;;11.57;;
71914;SDS011;60387;49.994;14.660;2022-10-31T13:54:47;21.57;;;10.97;;
71914;SDS011;60387;49.994;14.660;2022-10-31T13:57:28;20.20;;;10.02;;
71914;SDS011;60387;49.994;14.660;2022-10-31T14:02:43;24.10;;;11.20;;
71914;SDS011;60387;49.994;14.660;2022-10-31T14:08:01;21.00;;;10.17;;
71914;SDS011;60387;49.994;14.660;2022-10-31T14:10:37;24.25;;;10.68;;
71914;SDS011;60387;49.994;14.660;2022-10-31T14:13:21;20.35;;;10.40;;
71914;SDS011;60387;49.994;14.660;2022-10-31T14:16:01;21.33;;;10.50;;
71914;SDS011;60387;49.994;14.660;2022-10-31T14:18:37;21.85;;;10.90;;
71914;SDS011;60387;49.994;14.660;2022-10-31T14:23:58;23.40;;;11.73;;
71914;SDS011;60387;49.994;14.660;2022-10-31T14:26:32;24.17;;;10.83;;
71914;SDS011;60387;49.994;14.660;2022-10-31T14:29:28;24.48;;;11.68;;
71914;SDS011;60387;49.994;14.660;2022-10-31T14:34:39;23.37;;;11.73;;
71914;SDS011;60387;49.994;14.660;2022-10-31T14:40:53;23.73;;;11.77;;
71914;SDS011;60387;49.994;14.660;2022-10-31T14:52:18;23.88;;;12.32;;
71914;SDS011;60387;49.994;14.660;2022-10-31T14:54:53;25.33;;;12.73;;
71914;SDS011;60387;49.994;14.660;2022-10-31T14:57:34;23.95;;;12.75;;
71914;SDS011;60387;49.994;14.660;2022-10-31T15:00:12;23.73;;;12.00;;
71914;SDS011;60387;49.994;14.660;2022-10-31T15:05:42;27.13;;;12.73;;
71914;SDS011;60387;49.994;14.660;2022-10-31T15:08:37;24.63;;;12.50;;
71914;SDS011;60387;49.994;14.660;2022-10-31T15:11:22;25.25;;;13.00;;
71914;SDS011;60387;49.994;14.660;2022-10-31T15:13:58;24.35;;;12.48;;
71914;SDS011;60387;49.994;14.660;2022-10-31T15:16:33;23.57;;;12.17;;
71914;SDS011;60387;49.994;14.660;2022-10-31T15:19:12;26.98;;;13.23;;
71914;SDS011;60387;49.994;14.660;2022-10-31T15:21:53;26.17;;;12.88;;
71914;SDS011;60387;49.994;14.660;2022-10-31T15:24:32;24.98;;;12.25;;
71914;SDS011;60387;49.994;14.660;2022-10-31T15:27:15;28.40;;;14.30;;
71914;SDS011;60387;49.994;14.660;2022-10-31T15:29:51;46.10;;;19.27;;
71914;SDS011;60387;49.994;14.660;2022-10-31T15:32:26;35.13;;;15.60;;
71914;SDS011;60387;49.994;14.660;2022-10-31T15:35:02;51.83;;;22.90;;
71914;SDS011;60387;49.994;14.660;2022-10-31T15:37:42;176.93;;;59.15;;
71914;SDS011;60387;49.994;14.660;2022-10-31T15:40:16;65.07;;;26.90;;
71914;SDS011;60387;49.994;14.660;2022-10-31T15:42:52;35.00;;;16.38;;
71914;SDS011;60387;49.994;14.660;2022-10-31T15:45:29;28.85;;;13.65;;
71914;SDS011;60387;49.994;14.660;2022-10-31T15:48:14;85.80;;;47.27;;
71914;SDS011;60387;49.994;14.660;2022-10-31T15:50:51;47.67;;;23.63;;
71914;SDS011;60387;49.994;14.660;2022-10-31T15:54:10;43.75;;;23.35;;
71914;SDS011;60387;49.994;14.660;2022-10-31T15:56:27;36.85;;;18.60;;
71914;SDS011;60387;49.994;14.660;2022-10-31T15:59:03;32.95;;;17.88;;
71914;SDS011;60387;49.994;14.660;2022-10-31T16:01:36;31.42;;;16.48;;
71914;SDS011;60387;49.994;14.660;2022-10-31T16:06:43;29.37;;;14.40;;
71914;SDS011;60387;49.994;14.660;2022-10-31T16:09:23;31.27;;;15.17;;
71914;SDS011;60387;49.994;14.660;2022-10-31T16:11:57;33.20;;;15.50;;
71914;SDS011;60387;49.994;14.660;2022-10-31T16:14:31;36.93;;;20.43;;
71914;SDS011;60387;49.994;14.660;2022-10-31T16:17:15;32.85;;;18.15;;
71914;SDS011;60387;49.994;14.660;2022-10-31T16:19:52;33.63;;;16.60;;
71914;SDS011;60387;49.994;14.660;2022-10-31T16:22:39;32.30;;;16.15;;
71914;SDS011;60387;49.994;14.660;2022-10-31T16:27:48;29.08;;;15.32;;
71914;SDS011;60387;49.994;14.660;2022-10-31T16:30:28;29.70;;;15.13;;
71914;SDS011;60387;49.994;14.660;2022-10-31T16:33:02;30.00;;;15.40;;
71914;SDS011;60387;49.994;14.660;2022-10-31T16:35:36;34.67;;;19.43;;
71914;SDS011;60387;49.994;14.660;2022-10-31T16:38:11;32.30;;;15.70;;
71914;SDS011;60387;49.994;14.660;2022-10-31T16:40:44;36.80;;;15.90;;
71914;SDS011;60387;49.994;14.660;2022-10-31T16:43:19;32.53;;;15.85;;
71914;SDS011;60387;49.994;14.660;2022-10-31T16:45:53;33.60;;;15.35;;
71914;SDS011;60387;49.994;14.660;2022-10-31T16:48:27;30.80;;;14.37;;
71914;SDS011;60387;49.994;14.660;2022-10-31T16:51:00;32.17;;;15.03;;
71914;SDS011;60387;49.994;14.660;2022-10-31T16:53:33;32.77;;;15.70;;
71914;SDS011;60387;49.994;14.660;2022-10-31T16:56:12;29.97;;;14.43;;
71914;SDS011;60387;49.994;14.660;2022-10-31T16:58:49;30.63;;;14.10;;
71914;SDS011;60387;49.994;14.660;2022-10-31T17:01:22;35.43;;;16.40;;
71914;SDS011;60387;49.994;14.660;2022-10-31T17:03:56;37.60;;;18.25;;
71914;SDS011;60387;49.994;14.660;2022-10-31T17:06:29;38.57;;;19.37;;
71914;SDS011;60387;49.994;14.660;2022-10-31T17:09:02;66.23;;;18.27;;
71914;SDS011;60387;49.994;14.660;2022-10-31T17:11:36;39.73;;;14.63;;
71914;SDS011;60387;49.994;14.660;2022-10-31T17:14:16;31.30;;;15.20;;
71914;SDS011;60387;49.994;14.660;2022-10-31T17:16:50;34.47;;;15.57;;
71914;SDS011;60387;49.994;14.660;2022-10-31T17:19:23;32.47;;;16.33;;
71914;SDS011;60387;49.994;14.660;2022-10-31T17:21:56;30.90;;;15.20;;
71914;SDS011;60387;49.994;14.660;2022-10-31T17:24:30;39.33;;;17.87;;
71914;SDS011;60387;49.994;14.660;2022-10-31T17:27:06;38.47;;;17.53;;
71914;SDS011;60387;49.994;14.660;2022-10-31T17:29:39;33.00;;;16.97;;
71914;SDS011;60387;49.994;14.660;2022-10-31T17:32:13;34.88;;;16.50;;
71914;SDS011;60387;49.994;14.660;2022-10-31T17:34:46;33.10;;;16.87;;
71914;SDS011;60387;49.994;14.660;2022-10-31T17:37:19;36.07;;;17.53;;
71914;SDS011;60387;49.994;14.660;2022-10-31T17:39:52;31.80;;;15.70;;
71914;SDS011;60387;49.994;14.660;2022-10-31T17:42:26;33.00;;;16.10;;
71914;SDS011;60387;49.994;14.660;2022-10-31T17:44:59;33.60;;;16.07;;
71914;SDS011;60387;49.994;14.660;2022-10-31T17:47:33;31.40;;;16.70;;
71914;SDS011;60387;49.994;14.660;2022-10-31T17:50:07;38.92;;;18.48;;
71914;SDS011;60387;49.994;14.660;2022-10-31T17:52:41;39.63;;;20.10;;